createdAt,value
2022-11-29T00:04:32.545Z,49.27
2022-11-29T00:09:37.299Z,46.37
2022-11-29T00:14:39.491Z,51.90
2022-11-29T00:19:45.978Z,52.60
2022-11-29T00:24:47.724Z,51.83
2022-11-29T00:29:49.624Z,62.83
2022-11-29T00:34:51.325Z,51.13
2022-11-29T00:39:55.318Z,61.20
2022-11-29T00:45:01.261Z,56.87
2022-11-29T00:50:03.544Z,61.93
2022-11-29T00:55:08.868Z,55.90
2022-11-29T01:00:11.090Z,65.73
2022-11-29T01:05:17.829Z,65.23
2022-11-29T01:10:19.586Z,60.93
2022-11-29T01:15:22.428Z,61.40
2022-11-29T01:20:24.216Z,64.10
2022-11-29T01:25:29.544Z,66.23
2022-11-29T01:30:31.253Z,63.83
2022-11-29T01:35:32.993Z,57.90
2022-11-29T01:40:37.004Z,73.43
2022-11-29T01:45:41.288Z,69.03
2022-11-29T01:50:45.380Z,57.10
2022-11-29T01:55:53.860Z,62.17
2022-11-29T02:00:57.441Z,64.07
2022-11-29T02:06:10.546Z,65.60
2022-11-29T02:11:15.034Z,71.10
2022-11-29T02:16:23.285Z,67.37
2022-11-29T02:21:27.901Z,85.90
2022-11-29T02:27:01.912Z,75.47
2022-11-29T02:32:34.840Z,72.83
2022-11-29T02:37:48.299Z,66.43
2022-11-29T02:43:14.334Z,60.20
2022-11-29T02:48:31.013Z,67.63
2022-11-29T02:53:58.307Z,66.47
2022-11-29T02:59:05.658Z,75.23
2022-11-29T03:04:21.197Z,58.30
2022-11-29T03:09:36.467Z,61.33
2022-11-29T03:15:08.433Z,59.07
2022-11-29T03:20:33.851Z,55.53
2022-11-29T03:26:01.901Z,51.87
2022-11-29T03:31:29.245Z,51.67
2022-11-29T03:36:55.517Z,57.13
2022-11-29T03:42:05.297Z,56.97
2022-11-29T03:47:15.893Z,50.07
2022-11-29T03:52:18.685Z,61.97
2022-11-29T03:57:45.312Z,57.67
2022-11-29T04:03:13.296Z,55.13
2022-11-29T04:08:34.748Z,46.63
2022-11-29T04:14:03.664Z,49.87
2022-11-29T04:19:37.446Z,52.10
2022-11-29T04:25:16.332Z,51.47
2022-11-29T04:30:25.449Z,45.43
2022-11-29T04:35:48.480Z,53.27
2022-11-29T04:40:58.526Z,58.73
2022-11-29T04:46:27.220Z,56.40
2022-11-29T04:51:49.715Z,45.37
2022-11-29T04:57:09.319Z,44.63
2022-11-29T05:02:33.174Z,47.73
2022-11-29T05:07:51.976Z,49.47
2022-11-29T05:13:03.223Z,46.80
2022-11-29T05:18:19.018Z,55.77
2022-11-29T05:23:31.874Z,50.20
2022-11-29T05:29:06.641Z,60.97
2022-11-29T05:34:33.278Z,57.37
2022-11-29T05:39:54.637Z,57.57
2022-11-29T05:45:12.941Z,59.70
2022-11-29T05:50:28.712Z,59.70
2022-11-29T05:55:47.279Z,57.03
2022-11-29T06:01:05.771Z,62.70
2022-11-29T06:06:30.623Z,54.57
2022-11-29T06:11:40.182Z,66.57
2022-11-29T06:16:51.233Z,69.00
2022-11-29T06:22:05.780Z,68.23
2022-11-29T06:27:42.964Z,73.28
2022-11-29T06:33:12.511Z,71.63
2022-11-29T06:38:32.783Z,73.33
2022-11-29T06:43:34.741Z,80.13
2022-11-29T06:49:02.061Z,66.43
2022-11-29T06:54:20.964Z,74.40
2022-11-29T07:00:03.811Z,68.07
2022-11-29T07:05:22.765Z,72.80
2022-11-29T07:10:29.270Z,71.70
2022-11-29T07:15:31.447Z,65.43
2022-11-29T07:20:54.892Z,72.17
2022-11-29T07:26:03.626Z,51.03
2022-11-29T07:31:29.790Z,55.83
2022-11-29T07:37:06.084Z,53.50
2022-11-29T07:42:21.340Z,42.80
2022-11-29T07:47:24.665Z,39.03
2022-11-29T07:52:28.630Z,35.30
2022-11-29T07:57:36.923Z,36.03
2022-11-29T08:02:43.840Z,35.90
2022-11-29T08:07:47.901Z,30.60
2022-11-29T08:12:52.365Z,29.93
2022-11-29T08:17:58.871Z,28.60
2022-11-29T08:23:03.381Z,30.93
2022-11-29T08:28:05.950Z,28.60
2022-11-29T08:33:07.810Z,30.33
2022-11-29T08:38:11.744Z,37.57
2022-11-29T08:43:13.469Z,32.07
2022-11-29T08:48:17.372Z,34.60
2022-11-29T08:53:38.368Z,38.07
2022-11-29T08:58:43.166Z,31.37
2022-11-29T09:04:02.913Z,25.93
2022-11-29T09:09:07.966Z,30.83
2022-11-29T09:14:15.816Z,25.87
2022-11-29T09:19:17.675Z,27.47
2022-11-29T09:24:20.729Z,25.57
2022-11-29T09:29:22.569Z,26.27
2022-11-29T09:34:26.550Z,31.70
2022-11-29T09:39:34.631Z,23.97
2022-11-29T09:45:15.036Z,26.13
2022-11-29T09:50:25.775Z,26.90
2022-11-29T09:55:35.872Z,26.13
2022-11-29T10:00:45.821Z,24.63
2022-11-29T10:05:53.361Z,29.23
2022-11-29T10:11:09.960Z,34.03
2022-11-29T10:16:54.119Z,26.97
2022-11-29T10:22:02.862Z,32.73
2022-11-29T10:27:18.583Z,28.10
2022-11-29T10:32:21.421Z,29.90
2022-11-29T10:37:25.006Z,28.63
2022-11-29T10:42:53.289Z,28.17
2022-11-29T10:48:03.121Z,32.50
2022-11-29T10:53:15.624Z,29.47
2022-11-29T10:58:28.218Z,27.23
2022-11-29T11:03:52.830Z,27.30
2022-11-29T11:09:15.330Z,27.97
2022-11-29T11:14:31.029Z,30.33
2022-11-29T11:19:34.434Z,29.97
2022-11-29T11:24:41.001Z,25.27
2022-11-29T11:29:46.359Z,26.93
2022-11-29T11:35:21.610Z,28.57
2022-11-29T11:40:29.627Z,26.33
2022-11-29T11:45:35.054Z,31.73
2022-11-29T11:50:42.692Z,29.37
2022-11-29T11:56:09.436Z,30.87
2022-11-29T12:01:25.256Z,31.57
2022-11-29T12:06:42.220Z,27.60
2022-11-29T12:12:03.741Z,34.40
2022-11-29T12:17:19.665Z,32.47
2022-11-29T12:22:24.613Z,35.03
2022-11-29T12:27:28.562Z,28.40
2022-11-29T12:32:36.888Z,30.70
2022-11-29T12:37:44.290Z,37.90
2022-11-29T12:43:01.205Z,39.77
2022-11-29T12:48:35.227Z,33.70
2022-11-29T12:54:01.151Z,32.23
2022-11-29T12:59:15.491Z,37.53
2022-11-29T13:04:26.295Z,32.40
2022-11-29T13:10:02.736Z,32.77
2022-11-29T13:15:14.421Z,43.03
2022-11-29T13:20:36.897Z,39.50
2022-11-29T13:25:42.100Z,31.07
2022-11-29T13:30:44.077Z,40.80
2022-11-29T13:35:54.526Z,36.53
2022-11-29T13:41:13.169Z,48.70
2022-11-29T13:46:38.654Z,43.83
2022-11-29T13:51:46.289Z,46.07
2022-11-29T13:56:50.219Z,42.57
2022-11-29T14:01:55.399Z,45.57
2022-11-29T14:07:09.891Z,44.00
2022-11-29T14:12:37.060Z,52.73
2022-11-29T14:17:53.345Z,42.83
2022-11-29T14:23:04.550Z,51.00
2022-11-29T14:28:12.415Z,50.00
2022-11-29T14:33:45.047Z,55.50
2022-11-29T14:39:04.969Z,60.63
2022-11-29T14:44:28.476Z,56.37
2022-11-29T14:49:40.827Z,78.00
2022-11-29T14:55:23.433Z,68.43
2022-11-29T15:00:46.767Z,76.70
2022-11-29T15:05:58.001Z,76.90
2022-11-29T15:11:20.017Z,93.47
2022-11-29T15:17:03.828Z,71.53
2022-11-29T15:22:21.358Z,83.43
2022-11-29T15:27:25.585Z,76.40
2022-11-29T15:32:30.941Z,80.93
2022-11-29T15:37:36.504Z,111.90
2022-11-29T15:42:43.553Z,100.63
2022-11-29T15:47:45.290Z,84.37
2022-11-29T15:52:50.185Z,87.07
2022-11-29T15:57:56.659Z,101.60
2022-11-29T16:03:06.572Z,97.40
2022-11-29T16:08:16.393Z,98.87
2022-11-29T16:13:38.897Z,81.77
2022-11-29T16:18:45.408Z,85.63
2022-11-29T16:23:54.902Z,70.47
2022-11-29T16:28:59.109Z,67.70
2022-11-29T16:34:31.220Z,69.70
2022-11-29T16:39:35.474Z,61.97
2022-11-29T16:44:46.836Z,70.53
2022-11-29T16:50:15.825Z,63.67
2022-11-29T16:55:25.330Z,70.77
2022-11-29T17:00:30.093Z,65.80
2022-11-29T17:05:31.803Z,73.97
2022-11-29T17:10:40.604Z,63.40
2022-11-29T17:15:45.904Z,62.60
2022-11-29T17:20:47.640Z,66.63
2022-11-29T17:26:01.449Z,71.13
2022-11-29T17:31:10.849Z,64.00
2022-11-29T17:36:15.480Z,63.00
2022-11-29T17:41:22.774Z,65.50
2022-11-29T17:46:36.359Z,68.10
2022-11-29T17:51:51.673Z,61.63
2022-11-29T17:56:58.667Z,59.40
2022-11-29T18:02:04.744Z,57.87
2022-11-29T18:07:13.041Z,54.10
2022-11-29T18:12:14.944Z,60.03
2022-11-29T18:17:19.157Z,63.07
2022-11-29T18:22:25.482Z,61.37
2022-11-29T18:27:30.613Z,76.27
2022-11-29T18:32:34.683Z,60.20
2022-11-29T18:38:13.325Z,68.70
2022-11-29T18:43:03.264Z,66.10
2022-11-29T18:48:07.588Z,71.87
2022-11-29T18:53:13.102Z,77.83
2022-11-29T18:58:14.771Z,71.27
2022-11-29T19:03:18.897Z,79.43
2022-11-29T19:08:20.617Z,72.17
2022-11-29T19:13:22.567Z,75.73
2022-11-29T19:18:26.768Z,73.53
2022-11-29T19:23:33.819Z,72.97
2022-11-29T19:28:42.789Z,68.20
2022-11-29T19:33:45.204Z,74.53
2022-11-29T19:38:54.075Z,78.50
2022-11-29T19:43:57.314Z,76.47
2022-11-29T19:49:04.249Z,87.17
2022-11-29T19:54:10.213Z,76.93
2022-11-29T19:59:11.902Z,87.00
2022-11-29T20:04:17.562Z,81.93
2022-11-29T20:09:22.427Z,99.37
2022-11-29T20:14:24.663Z,87.93
2022-11-29T20:19:29.887Z,92.07
2022-11-29T20:24:40.100Z,112.03
2022-11-29T20:29:49.295Z,100.27
2022-11-29T20:34:54.338Z,107.73
2022-11-29T20:40:13.645Z,96.90
2022-11-29T20:45:16.645Z,93.67
2022-11-29T20:50:27.110Z,94.40
2022-11-29T20:55:31.489Z,87.37
2022-11-29T21:00:34.379Z,95.30
2022-11-29T21:05:38.468Z,82.57
2022-11-29T21:10:42.425Z,83.47
2022-11-29T21:15:44.438Z,91.07
2022-11-29T21:20:51.545Z,92.60
2022-11-29T21:25:58.087Z,88.73
2022-11-29T21:31:02.954Z,80.80
2022-11-29T21:36:07.304Z,75.43
2022-11-29T21:41:09.035Z,86.17
2022-11-29T21:46:11.084Z,90.00
2022-11-29T21:51:13.055Z,77.80
2022-11-29T21:56:14.861Z,91.47
2022-11-29T22:01:23.208Z,102.00
2022-11-29T22:06:29.331Z,87.63
2022-11-29T22:11:35.349Z,85.17
2022-11-29T22:16:38.778Z,76.40
2022-11-29T22:21:45.006Z,78.43
2022-11-29T22:26:49.824Z,92.40
2022-11-29T22:31:59.213Z,88.87
2022-11-29T22:37:03.141Z,83.83
2022-11-29T22:42:06.066Z,84.17
2022-11-29T22:47:07.855Z,99.50
2022-11-29T22:52:11.964Z,90.53
2022-11-29T22:57:18.506Z,104.10
2022-11-29T23:02:22.466Z,100.03
2022-11-29T23:07:24.351Z,105.93
2022-11-29T23:12:26.194Z,110.63
2022-11-29T23:17:29.743Z,106.50
2022-11-29T23:22:31.685Z,111.47
2022-11-29T23:27:35.816Z,112.77
2022-11-29T23:32:42.070Z,107.57
2022-11-29T23:37:44.208Z,97.93
2022-11-29T23:42:53.195Z,104.53
2022-11-29T23:47:57.123Z,85.37
2022-11-29T23:53:01.205Z,80.50
2022-11-29T23:58:06.748Z,95.23
